createdAt,value
2018-05-14T00:00:17.192Z,73.41
2018-05-14T00:01:27.272Z,73.41
2018-05-14T00:02:37.360Z,73.41
2018-05-14T00:03:47.212Z,73.41
2018-05-14T00:04:57.695Z,73.11
2018-05-14T00:06:07.772Z,73.31
2018-05-14T00:07:17.914Z,73.11
2018-05-14T00:08:27.972Z,73.11
2018-05-14T00:09:38.042Z,73.11
2018-05-14T00:10:48.118Z,73.31
2018-05-14T00:11:58.183Z,73.31
2018-05-14T00:13:08.026Z,73.31
2018-05-14T00:14:17.860Z,73.21
2018-05-14T00:15:27.689Z,73.21
2018-05-14T00:16:37.504Z,72.92
2018-05-14T00:17:47.572Z,73.31
2018-05-14T00:18:57.392Z,73.21
2018-05-14T00:20:07.485Z,73.02
2018-05-14T00:21:17.586Z,73.18
2018-05-14T00:22:27.428Z,73.37
2018-05-14T00:23:37.518Z,73.08
2018-05-14T00:24:47.648Z,73.08
2018-05-14T00:25:57.463Z,73.27
2018-05-14T00:27:07.551Z,73.08
2018-05-14T00:28:17.632Z,73.18
2018-05-14T00:29:27.723Z,73.27
2018-05-14T00:30:37.810Z,73.27
2018-05-14T00:31:47.894Z,73.37
2018-05-14T00:32:57.967Z,73.27
2018-05-14T00:34:08.039Z,73.56
2018-05-14T00:35:18.116Z,73.37
2018-05-14T00:36:28.264Z,73.66
2018-05-14T00:37:38.351Z,73.56
2018-05-14T00:38:48.431Z,73.37
2018-05-14T00:39:59.511Z,73.27
2018-05-14T00:41:09.327Z,73.27
2018-05-14T00:42:19.450Z,73.37
2018-05-14T00:43:29.515Z,73.27
2018-05-14T00:44:39.612Z,73.08
2018-05-14T00:45:49.701Z,73.27
2018-05-14T00:46:59.505Z,73.37
2018-05-14T00:48:09.574Z,73.24
2018-05-14T00:49:19.696Z,73.33
2018-05-14T00:50:29.598Z,73.24
2018-05-14T00:51:39.488Z,73.33
2018-05-14T00:52:49.089Z,73.04
2018-05-14T00:53:59.226Z,73.24
2018-05-14T00:55:09.066Z,73.43
2018-05-14T00:56:19.141Z,73.24
2018-05-14T00:57:29.203Z,73.24
2018-05-14T00:58:39.019Z,73.04
2018-05-14T00:59:49.165Z,73.04
2018-05-14T01:00:59.228Z,73.04
2018-05-14T01:02:09.045Z,73.24
2018-05-14T01:03:18.872Z,72.95
2018-05-14T01:04:28.941Z,73.04
2018-05-14T01:05:39.032Z,72.95
2018-05-14T01:06:49.103Z,73.14
2018-05-14T01:07:58.913Z,72.95
2018-05-14T01:09:08.989Z,73.04
2018-05-14T01:10:19.103Z,73.43
2018-05-14T01:11:28.961Z,73.14
2018-05-14T01:12:39.039Z,72.95
2018-05-14T01:13:49.125Z,73.52
2018-05-14T01:14:58.976Z,73.24
2018-05-14T01:16:09.046Z,73.24
2018-05-14T01:17:19.133Z,73.24
2018-05-14T01:18:29.207Z,73.24
2018-05-14T01:19:39.039Z,73.33
2018-05-14T01:20:49.124Z,73.33
2018-05-14T01:21:59.196Z,73.43
2018-05-14T01:23:09.271Z,73.24
2018-05-14T01:24:19.354Z,73
2018-05-14T01:25:29.437Z,73.24
2018-05-14T01:26:39.519Z,73.14
2018-05-14T01:27:49.060Z,73.3
2018-05-14T01:28:59.179Z,73.3
2018-05-14T01:30:09.282Z,73.52
2018-05-14T01:31:19.096Z,73.2
2018-05-14T01:32:28.917Z,73.49
2018-05-14T01:33:38.744Z,73.2
2018-05-14T01:34:48.555Z,73.39
2018-05-14T01:35:58.632Z,73.3
2018-05-14T01:37:08.442Z,73.49
2018-05-14T01:38:18.522Z,73.49
2018-05-14T01:39:28.591Z,73.39
2018-05-14T01:40:38.406Z,73.49
2018-05-14T01:41:48.227Z,73.49
2018-05-14T01:42:58.052Z,73.58
2018-05-14T01:44:08.133Z,73.3
2018-05-14T01:45:18.238Z,73.49
2018-05-14T01:46:28.123Z,73.3
2018-05-14T01:47:38.202Z,73.49
2018-05-14T01:48:48.273Z,73.49
2018-05-14T01:49:58.344Z,73.58
2018-05-14T01:51:08.157Z,73.58
2018-05-14T01:52:18.305Z,73.39
2018-05-14T01:53:28.381Z,73.3
2018-05-14T01:54:38.470Z,73.58
2018-05-14T01:55:48.533Z,73.49
2018-05-14T01:56:58.341Z,73.49
2018-05-14T01:58:07.939Z,73.39
2018-05-14T01:59:17.830Z,73.3
2018-05-14T02:00:27.950Z,73.49
2018-05-14T02:01:38.031Z,73.3
2018-05-14T02:02:48.126Z,73.39
2018-05-14T02:03:58.065Z,73.39
2018-05-14T02:05:08.150Z,73.3
2018-05-14T02:06:18.224Z,73.3
2018-05-14T02:07:28.299Z,73.49
2018-05-14T02:08:37.859Z,73.49
2018-05-14T02:09:47.664Z,73.3
2018-05-14T02:10:57.745Z,73.26
2018-05-14T02:12:07.818Z,73.45
2018-05-14T02:13:17.885Z,73.26
2018-05-14T02:14:27.692Z,73.26
2018-05-14T02:15:37.777Z,73.35
2018-05-14T02:16:47.854Z,73.16
2018-05-14T02:17:57.677Z,73.16
2018-05-14T02:19:07.495Z,73.16
2018-05-14T02:20:17.572Z,73.26
2018-05-14T02:21:27.443Z,73.07
2018-05-14T02:22:37.508Z,73.26
2018-05-14T02:23:47.580Z,73.26
2018-05-14T02:24:57.665Z,73.45
2018-05-14T02:26:07.737Z,73.35
2018-05-14T02:27:17.820Z,73.35
2018-05-14T02:28:27.641Z,73.26
2018-05-14T02:29:37.807Z,73.26
2018-05-14T02:30:47.896Z,73.35
2018-05-14T02:31:57.999Z,73.35
2018-05-14T02:33:08.089Z,73.45
2018-05-14T02:34:18.171Z,73.74
2018-05-14T02:35:28.061Z,73.35
2018-05-14T02:36:37.875Z,73.55
2018-05-14T02:37:47.691Z,73.55
2018-05-14T02:38:57.787Z,73.26
2018-05-14T02:40:07.607Z,73.65
2018-05-14T02:41:17.697Z,73.55
2018-05-14T02:42:27.778Z,73.35
2018-05-14T02:43:37.915Z,73.65
2018-05-14T02:44:48.002Z,73.74
2018-05-14T02:45:57.554Z,73.55
2018-05-14T02:47:07.636Z,73.61
2018-05-14T02:48:17.465Z,73.51
2018-05-14T02:49:27.591Z,73.51
2018-05-14T02:50:37.686Z,73.32
2018-05-14T02:51:47.763Z,73.32
2018-05-14T02:52:57.867Z,73.41
2018-05-14T02:54:07.977Z,73.22
2018-05-14T02:55:17.785Z,73.32
2018-05-14T02:56:27.616Z,73.22
2018-05-14T02:57:37.754Z,73.13
2018-05-14T02:58:47.818Z,73.41
2018-05-14T02:59:57.891Z,73.41
2018-05-14T03:01:07.979Z,73.41
2018-05-14T03:02:18.067Z,73.41
2018-05-14T03:34:12.415Z,68.93
2018-05-14T03:35:22.474Z,69.64
2018-05-14T03:36:32.632Z,70.56
2018-05-14T03:37:42.692Z,70.78
2018-05-14T03:38:52.847Z,71.64
2018-05-14T03:40:02.715Z,71.83
2018-05-14T03:41:12.811Z,71.93
2018-05-14T03:42:22.924Z,72.31
2018-05-14T03:43:32.993Z,72.44
2018-05-14T03:44:42.540Z,73.02
2018-05-14T03:45:52.346Z,73.21
2018-05-14T03:47:02.439Z,72.48
2018-05-14T03:48:12.511Z,72.86
2018-05-14T03:49:22.588Z,72.52
2018-05-14T03:50:32.659Z,72.61
2018-05-14T03:51:42.832Z,72.71
2018-05-14T03:52:52.910Z,72.27
2018-05-14T03:54:03.004Z,72.27
2018-05-14T03:55:13.066Z,72.11
2018-05-14T03:56:23.133Z,72.11
2018-05-14T03:57:33.213Z,72.39
2018-05-14T03:58:43.315Z,71.76
2018-05-14T03:59:53.127Z,72.14
2018-05-14T04:01:03.204Z,72.24
2018-05-14T04:02:13.354Z,72.37
2018-05-14T04:03:23.705Z,71.89
2018-05-14T04:04:33.518Z,71.8
2018-05-14T04:05:43.595Z,71.45
2018-05-14T04:06:53.147Z,71.55
2018-05-14T04:08:03.201Z,71.55
2018-05-14T04:09:13.347Z,71.96
2018-05-14T04:10:23.433Z,71.87
2018-05-14T04:11:33.235Z,71.77
2018-05-14T04:12:43.315Z,71.61
2018-05-14T04:13:53.124Z,71.61
2018-05-14T04:15:03.202Z,71.81
2018-05-14T04:16:13.292Z,70.59
2018-05-14T04:17:23.365Z,67.71
2018-05-14T04:18:33.441Z,67.49
2018-05-14T04:19:43.533Z,67.91
2018-05-14T04:20:53.353Z,69.23
2018-05-14T04:22:03.166Z,70.25
2018-05-14T04:23:13.258Z,71.18
2018-05-14T04:24:23.475Z,71.14
2018-05-14T04:25:33.587Z,71.53
2018-05-14T04:26:43.679Z,71.81
2018-05-14T04:27:53.500Z,71.81
2018-05-14T04:29:03.581Z,71.62
2018-05-14T04:30:13.703Z,72.78
2018-05-14T04:31:23.834Z,72.3
2018-05-14T04:32:33.907Z,72.59
2018-05-14T04:33:43.731Z,72.59
2018-05-14T04:34:53.890Z,72.49
2018-05-14T04:36:03.967Z,71.91
2018-05-14T04:37:14.043Z,71.72
2018-05-14T04:38:24.117Z,71.91
2018-05-14T04:39:34.193Z,71.66
2018-05-14T04:40:44.393Z,69.19
2018-05-14T04:41:54.496Z,68.19
2018-05-14T04:43:04.572Z,68.62
2018-05-14T04:44:14.664Z,68.23
2018-05-14T04:45:24.480Z,68.94
2018-05-14T04:46:34.300Z,69.78
2018-05-14T04:47:44.381Z,68.13
2018-05-14T04:48:54.448Z,67.21
2018-05-14T04:50:04.542Z,65.95
2018-05-14T04:51:14.624Z,68.27
2018-05-14T04:52:24.479Z,69.37
2018-05-14T04:53:34.313Z,69.49
2018-05-14T04:54:44.388Z,68.11
2018-05-14T04:55:54.202Z,66.66
2018-05-14T04:57:04.323Z,65.79
2018-05-14T04:58:14.403Z,65.56
2018-05-14T04:59:24.626Z,64.85
2018-05-14T05:00:34.188Z,64.69
2018-05-14T05:01:44.259Z,64.55
2018-05-14T05:02:54.404Z,64.75
2018-05-14T05:04:04.504Z,64.62
2018-05-14T05:05:14.574Z,65.01
2018-05-14T05:06:24.652Z,65.46
2018-05-14T05:07:34.725Z,65.46
2018-05-14T05:08:44.870Z,65.5
2018-05-14T05:09:54.947Z,65.92
2018-05-14T05:11:04.513Z,65.43
2018-05-14T05:12:14.330Z,65.85
2018-05-14T05:13:24.398Z,65.75
2018-05-14T05:14:34.583Z,65.95
2018-05-14T05:15:44.666Z,67.77
2018-05-14T05:16:54.745Z,68.68
2018-05-14T05:18:04.931Z,70.26
2018-05-14T05:19:15.012Z,69.48
2018-05-14T05:20:24.828Z,68.74
2018-05-14T05:21:34.915Z,68.57
2018-05-14T05:22:44.756Z,68.38
2018-05-14T05:23:55.033Z,67.54
2018-05-14T05:25:05.131Z,67.28
2018-05-14T05:26:14.945Z,67.57
2018-05-14T05:27:25.015Z,67.77
2018-05-14T05:28:35.104Z,67.86
2018-05-14T05:29:44.917Z,67.86
2018-05-14T05:30:54.740Z,67.28
2018-05-14T05:32:05.046Z,67.47
2018-05-14T05:33:15.126Z,67.77
2018-05-14T05:34:24.734Z,67.96
2018-05-14T05:35:34.998Z,67.67
2018-05-14T05:36:45.099Z,68.35
2018-05-14T05:37:55.440Z,67.57
2018-05-14T05:39:05.861Z,67.86
2018-05-14T05:40:15.673Z,67.67
2018-05-14T05:41:25.496Z,67.67
2018-05-14T05:42:35.580Z,67.96
2018-05-14T05:43:45.726Z,67.96
2018-05-14T05:44:55.815Z,68.35
2018-05-14T05:46:05.906Z,68.41
2018-05-14T05:47:15.710Z,68.35
2018-05-14T05:48:25.532Z,68.12
2018-05-14T05:49:35.418Z,68.32
2018-05-14T05:50:45.591Z,68.41
2018-05-14T05:51:55.656Z,68.51
2018-05-14T05:53:05.459Z,68.22
2018-05-14T05:54:15.553Z,68.12
2018-05-14T05:55:25.685Z,68.22
2018-05-14T05:56:35.765Z,68.32
2018-05-14T05:57:45.640Z,68.22
2018-05-14T05:58:55.263Z,68.22
2018-05-14T06:00:05.341Z,68.55
2018-05-14T06:01:15.621Z,68.41
2018-05-14T06:02:25.848Z,69.84
2018-05-14T06:03:35.668Z,71.13
2018-05-14T06:04:45.765Z,71.55
2018-05-14T06:05:55.589Z,72.55
2018-05-14T06:07:05.679Z,72.51
2018-05-14T06:08:15.503Z,71.99
2018-05-14T06:09:25.710Z,71.99
2018-05-14T06:10:36.271Z,72.15
2018-05-14T06:11:46.364Z,72.24
2018-05-14T06:12:56.514Z,71.66
2018-05-14T06:14:06.330Z,70.98
2018-05-14T06:15:16.154Z,71.66
2018-05-14T06:16:26.047Z,71.04
2018-05-14T06:17:36.157Z,71.24
2018-05-14T06:18:46.244Z,70.86
2018-05-14T06:19:55.806Z,70.95
2018-05-14T06:21:05.622Z,70.72
2018-05-14T06:22:15.487Z,71.3
2018-05-14T06:23:25.757Z,71.4
2018-05-14T06:24:35.889Z,71.2
2018-05-14T06:25:45.714Z,71.11
2018-05-14T06:26:55.870Z,70.88
2018-05-14T06:28:05.689Z,71.56
2018-05-14T06:29:15.514Z,71.17
2018-05-14T06:30:25.605Z,71.46
2018-05-14T06:31:35.424Z,71.66
2018-05-14T06:32:45.502Z,70.98
2018-05-14T06:33:55.572Z,71.26
2018-05-14T06:35:05.386Z,70.68
2018-05-14T06:36:15.206Z,70.04
2018-05-14T06:37:25.343Z,70.04
2018-05-14T06:38:35.164Z,70.24
2018-05-14T06:39:45.241Z,69.85
2018-05-14T06:40:55.061Z,69.89
2018-05-14T06:42:05.144Z,70.27
2018-05-14T06:43:15.221Z,70.08
2018-05-14T06:44:25.169Z,70.37
2018-05-14T06:45:35.356Z,70.47
2018-05-14T06:46:45.437Z,70.43
2018-05-14T06:47:55.240Z,70.92
2018-05-14T06:49:04.856Z,70.92
2018-05-14T06:50:14.690Z,70.62
2018-05-14T06:51:24.505Z,70.43
2018-05-14T06:52:34.626Z,70.82
2018-05-14T06:53:44.714Z,71.5
2018-05-14T06:54:54.807Z,71.11
2018-05-14T06:56:04.964Z,71.94
2018-05-14T06:57:15.107Z,72.24
2018-05-14T06:58:25.249Z,71.66
2018-05-14T06:59:35.068Z,71.75
2018-05-14T07:00:45.181Z,71.26
2018-05-14T07:01:55.275Z,70.88
2018-05-14T07:03:05.484Z,70.98
2018-05-14T07:04:15.265Z,71.08
2018-05-14T07:05:25.106Z,71.17
2018-05-14T07:06:35.196Z,71.26
2018-05-14T07:07:45.275Z,71.17
2018-05-14T07:08:55.346Z,71.26
2018-05-14T07:10:05.499Z,70.98
2018-05-14T07:11:15.338Z,71.46
2018-05-14T07:12:25.438Z,71.46
2018-05-14T07:13:35.262Z,71.46
2018-05-14T07:14:45.344Z,71.46
2018-05-14T07:15:55.451Z,71.08
2018-05-14T07:17:05.534Z,71.2
2018-05-14T07:18:15.624Z,71.3
2018-05-14T07:19:25.954Z,70.92
2018-05-14T07:20:35.872Z,70.43
2018-05-14T07:21:45.940Z,70.53
2018-05-14T07:22:56.029Z,70.82
2018-05-14T07:24:06.125Z,70.82
2018-05-14T07:25:16.194Z,70.82
2018-05-14T07:26:26.011Z,70.92
2018-05-14T07:27:35.855Z,71.4
2018-05-14T07:28:45.684Z,71.11
2018-05-14T07:29:55.776Z,71.2
2018-05-14T07:31:05.927Z,70.92
2018-05-14T07:32:16.005Z,71.4
2018-05-14T07:33:26.132Z,71.5
2018-05-14T07:34:36.210Z,71.3
2018-05-14T07:35:46.304Z,71.2
2018-05-14T07:36:56.126Z,71.2
2018-05-14T07:38:06.240Z,71.2
2018-05-14T07:39:16.346Z,71.2
2018-05-14T07:40:26.560Z,71.4
2018-05-14T07:41:36.722Z,71.14
2018-05-14T07:42:46.530Z,71.34
2018-05-14T07:43:56.343Z,70.76
2018-05-14T07:45:06.435Z,70.95
2018-05-14T07:46:16.527Z,70.47
2018-05-14T07:47:26.607Z,70.47
2018-05-14T07:48:36.424Z,70.95
2018-05-14T07:49:46.515Z,70.89
2018-05-14T07:50:56.633Z,70.5
2018-05-14T07:52:06.725Z,70.5
2018-05-14T07:53:16.566Z,70.4
2018-05-14T07:54:26.889Z,70.5
2018-05-14T07:55:36.984Z,70.6
2018-05-14T07:56:46.797Z,70.63
2018-05-14T07:57:56.888Z,70.98
2018-05-14T07:59:06.974Z,70.6
2018-05-14T08:00:17.141Z,70.83
2018-05-14T08:01:27.562Z,71.02
2018-05-14T08:02:37.647Z,70.98
2018-05-14T08:03:47.747Z,71.12
2018-05-14T08:04:57.560Z,70.6
2018-05-14T08:06:07.642Z,71.02
2018-05-14T08:07:17.732Z,70.54
2018-05-14T08:08:27.885Z,70.44
2018-05-14T08:09:37.854Z,70.63
2018-05-14T08:10:47.672Z,70.63
2018-05-14T08:11:57.504Z,70.83
2018-05-14T08:13:07.050Z,71.02
2018-05-14T08:14:17.203Z,71.02
2018-05-14T08:15:27.316Z,71.02
2018-05-14T08:16:37.397Z,70.47
2018-05-14T08:17:46.969Z,70.47
2018-05-14T08:18:57.065Z,70.57
2018-05-14T08:20:07.210Z,70.76
2018-05-14T08:21:17.292Z,70.76
2018-05-14T08:22:27.371Z,71.15
2018-05-14T08:23:37.588Z,71.06
2018-05-14T08:24:47.155Z,70.86
2018-05-14T08:25:57.246Z,71.09
2018-05-14T08:27:07.325Z,71.09
2018-05-14T08:28:17.153Z,70.9
2018-05-14T08:29:27.240Z,70.99
2018-05-14T08:30:37.063Z,70.8
2018-05-14T08:31:47.279Z,70.73
2018-05-14T08:32:57.400Z,70.93
2018-05-14T08:34:07.031Z,70.45
2018-05-14T08:35:16.857Z,70.93
2018-05-14T08:36:26.931Z,70.93
2018-05-14T08:37:37.017Z,71.03
2018-05-14T08:38:47.108Z,71.03
2018-05-14T08:39:57.197Z,70.93
2018-05-14T08:41:07.256Z,71.12
2018-05-14T08:42:17.368Z,70.93
2018-05-14T08:43:27.754Z,71.03
2018-05-14T08:44:37.850Z,71.12
2018-05-14T08:45:47.421Z,71.12
2018-05-14T08:46:57.507Z,71.12
2018-05-14T08:48:07.566Z,71.16
2018-05-14T08:49:17.049Z,71.16
2018-05-14T08:50:27.139Z,71.06
2018-05-14T08:51:37.478Z,71.26
2018-05-14T08:52:47.546Z,70.87
2018-05-14T08:53:57.643Z,70.97
2018-05-14T08:55:07.798Z,70.87
2018-05-14T08:56:17.923Z,71.16
2018-05-14T08:57:27.737Z,70.87
2018-05-14T08:58:37.676Z,71.06
2018-05-14T08:59:47.494Z,70.48
2018-05-14T09:00:57.577Z,70.77
2018-05-14T09:02:07.662Z,70.48
2018-05-14T09:03:17.747Z,71.2
2018-05-14T09:04:27.582Z,70.87
2018-05-14T09:05:37.133Z,71.16
2018-05-14T09:06:47.586Z,70.87
2018-05-14T09:07:57.402Z,70.97
2018-05-14T09:09:07.226Z,70.97
2018-05-14T09:10:17.310Z,71
2018-05-14T09:11:27.394Z,71.16
2018-05-14T09:12:37.277Z,71.16
2018-05-14T09:13:47.093Z,71.06
2018-05-14T09:14:56.902Z,70.87
2018-05-14T09:16:06.713Z,70.81
2018-05-14T09:17:16.808Z,70.81
2018-05-14T09:18:26.912Z,70.87
2018-05-14T09:19:37.244Z,71.16
2018-05-14T09:20:47.603Z,71.16
2018-05-14T09:21:57.686Z,70.97
2018-05-14T09:23:07.766Z,70.87
2018-05-14T09:24:17.581Z,70.71
2018-05-14T09:25:27.406Z,70.51
2018-05-14T09:26:37.821Z,70.42
2018-05-14T09:27:47.643Z,70.51
2018-05-14T09:28:57.736Z,70.51
2018-05-14T09:30:07.852Z,70.61
2018-05-14T09:31:17.557Z,70.42
2018-05-14T09:32:27.905Z,70.71
2018-05-14T09:33:37.998Z,70.9
2018-05-14T09:34:48.096Z,70.32
2018-05-14T09:35:58.199Z,70.06
2018-05-14T09:37:08.274Z,69.87
2018-05-14T09:38:18.496Z,70.26
2018-05-14T09:39:28.303Z,70.16
2018-05-14T09:40:38.384Z,70.49
2018-05-14T09:41:48.472Z,70.29
2018-05-14T09:42:58.588Z,69.81
2018-05-14T09:44:08.421Z,70.68
2018-05-14T09:45:18.517Z,70.49
2018-05-14T09:46:28.624Z,70.39
2018-05-14T09:47:39.505Z,70.87
2018-05-14T09:48:49.618Z,70.78
2018-05-14T09:49:59.702Z,70.78
2018-05-14T09:51:09.840Z,70.94
2018-05-14T09:52:19.973Z,70.94
2018-05-14T09:53:29.843Z,70.94
2018-05-14T09:54:39.923Z,70.84
2018-05-14T09:55:49.745Z,70.65
2018-05-14T09:56:59.833Z,69.9
2018-05-14T09:58:09.906Z,70.49
2018-05-14T09:59:19.738Z,70.2
2018-05-14T10:00:29.839Z,70.39
2018-05-14T10:01:39.935Z,69.84
2018-05-14T10:02:49.760Z,69.55
2018-05-14T10:03:59.851Z,69.45
2018-05-14T10:05:09.957Z,70.04
2018-05-14T10:06:20.038Z,70.32
2018-05-14T10:07:30.141Z,70.1
2018-05-14T10:08:39.739Z,70.42
2018-05-14T10:09:49.844Z,70.42
2018-05-14T10:10:59.981Z,69.74
2018-05-14T10:12:10.078Z,69.48
2018-05-14T10:13:19.905Z,69.39
2018-05-14T10:14:29.983Z,69.03
2018-05-14T10:15:39.536Z,68.84
2018-05-14T10:16:49.690Z,69.17
2018-05-14T10:17:59.791Z,69.17
2018-05-14T10:19:09.613Z,69.36
2018-05-14T10:20:19.707Z,69.56
2018-05-14T10:21:29.797Z,69.46
2018-05-14T10:22:39.865Z,69.46
2018-05-14T10:23:50.025Z,69.46
2018-05-14T10:25:00.104Z,68.9
2018-05-14T10:26:09.923Z,68.9
2018-05-14T10:27:20.046Z,68.9
2018-05-14T10:28:30.327Z,68.71
2018-05-14T10:29:40.181Z,69.98
2018-05-14T10:30:50.463Z,70.43
2018-05-14T10:32:00.786Z,70.68
2018-05-14T10:33:11.454Z,70.59
2018-05-14T10:34:22.385Z,70.1
2018-05-14T10:35:33.323Z,70.59
2018-05-14T10:36:43.778Z,69.84
2018-05-14T10:37:53.959Z,69.94
2018-05-14T10:39:04.716Z,69.29
2018-05-14T10:40:15.732Z,69.29
2018-05-14T10:41:27.061Z,69.68
2018-05-14T10:42:37.977Z,69.13
2018-05-14T10:43:48.603Z,68.94
2018-05-14T10:44:59.283Z,69.17
2018-05-14T10:46:10.241Z,68.94
2018-05-14T10:47:21.324Z,69.62
2018-05-14T10:48:31.911Z,70.23
2018-05-14T10:49:41.994Z,69.75
2018-05-14T10:50:51.815Z,70.07
2018-05-14T10:52:01.975Z,69.59
2018-05-14T10:53:12.120Z,69.84
2018-05-14T10:54:22.226Z,70.62
2018-05-14T10:55:32.330Z,70.33
2018-05-14T10:56:42.439Z,70.1
2018-05-14T10:57:52.531Z,70.1
2018-05-14T10:59:02.628Z,70.1
2018-05-14T11:00:12.188Z,70.04
2018-05-14T11:01:22.032Z,69.46
2018-05-14T11:02:32.135Z,69.26
2018-05-14T11:03:42.224Z,68.9
2018-05-14T11:04:52.306Z,68.8
2018-05-14T11:06:02.395Z,68.9
2018-05-14T11:07:12.504Z,68.94
2018-05-14T11:08:22.421Z,68.94
2018-05-14T11:09:32.539Z,68.84
2018-05-14T11:10:42.532Z,68.49
2018-05-14T11:11:52.621Z,68.87
2018-05-14T11:13:02.972Z,69.26
2018-05-14T11:14:13.071Z,69.17
2018-05-14T11:15:22.926Z,68.94
2018-05-14T11:16:33.039Z,68.94
2018-05-14T11:17:42.878Z,68
2018-05-14T11:18:53.149Z,68.59
2018-05-14T11:20:02.983Z,68.49
2018-05-14T11:21:13.123Z,68.87
2018-05-14T11:22:23.200Z,69.56
2018-05-14T11:23:33.288Z,69.92
2018-05-14T11:24:43.367Z,69.59
2018-05-14T11:25:53.517Z,69.39
2018-05-14T11:27:03.678Z,69.68
2018-05-14T11:28:13.518Z,69.98
2018-05-14T11:29:23.683Z,70.62
2018-05-14T11:30:33.788Z,69.65
2018-05-14T11:31:43.619Z,69.46
2018-05-14T11:32:53.722Z,69
2018-05-14T11:34:03.829Z,69.04
2018-05-14T11:35:13.908Z,69.04
2018-05-14T11:36:24.087Z,68.87
2018-05-14T11:37:34.277Z,69.23
2018-05-14T11:38:44.087Z,69.62
2018-05-14T11:39:53.924Z,69.98
2018-05-14T11:41:03.762Z,69.88
2018-05-14T11:42:13.857Z,69.88
2018-05-14T11:43:23.950Z,69.78
2018-05-14T11:44:34.058Z,69.2
2018-05-14T11:45:43.885Z,69.33
2018-05-14T11:46:53.703Z,69.78
2018-05-14T11:48:03.823Z,69.1
2018-05-14T11:49:13.923Z,68.84
2018-05-14T11:50:24.054Z,69.04
2018-05-14T11:51:34.137Z,68.19
2018-05-14T11:52:44.202Z,68.59
2018-05-14T11:53:54.278Z,68.71
2018-05-14T11:55:04.381Z,68.52
2018-05-14T11:56:14.529Z,68.55
2018-05-14T11:57:24.628Z,69.14
2018-05-14T11:58:34.723Z,68.65
2018-05-14T11:59:44.276Z,68.23
2018-05-14T12:00:54.360Z,68.36
2018-05-14T12:02:04.257Z,68.29
2018-05-14T12:03:14.186Z,68.59
2018-05-14T12:04:24.310Z,68.29
2018-05-14T12:05:34.392Z,68.71
2018-05-14T12:06:44.482Z,68.71
2018-05-14T12:07:54.622Z,68.52
2018-05-14T12:09:04.719Z,68.42
2018-05-14T12:10:14.966Z,68.62
2018-05-14T12:11:25.051Z,68.65
2018-05-14T12:12:35.134Z,68.65
2018-05-14T12:13:45.015Z,68.85
2018-05-14T12:14:54.833Z,68.85
2018-05-14T12:16:04.855Z,68.55
2018-05-14T12:17:15.498Z,68.55
2018-05-14T12:18:25.589Z,69.24
2018-05-14T12:19:35.689Z,69.21
2018-05-14T12:20:45.782Z,69.7
2018-05-14T12:21:55.631Z,68.88
2018-05-14T12:23:05.724Z,69.01
2018-05-14T12:24:15.810Z,69.01
2018-05-14T12:25:25.905Z,69.11
2018-05-14T12:26:35.755Z,69.21
2018-05-14T12:27:45.853Z,69.01
2018-05-14T12:28:55.944Z,69.4
2018-05-14T12:30:06.030Z,69.4
2018-05-14T12:31:16.188Z,69.95
2018-05-14T12:32:26.300Z,69.66
2018-05-14T12:33:36.385Z,70.02
2018-05-14T12:34:46.475Z,70.41
2018-05-14T12:35:56.570Z,70.92
2018-05-14T12:37:06.737Z,71.22
2018-05-14T12:38:16.576Z,70.89
2018-05-14T12:39:26.145Z,70.73
2018-05-14T12:40:36.240Z,69.65
2018-05-14T12:41:46.074Z,69.2
2018-05-14T12:42:56.166Z,69.14
2018-05-14T12:44:06.340Z,69.27
2018-05-14T12:45:16.444Z,69.37
2018-05-14T12:46:26.268Z,69.53
2018-05-14T12:47:36.358Z,69.69
2018-05-14T12:48:46.202Z,69.59
2018-05-14T12:49:56.299Z,69.85
2018-05-14T12:51:06.410Z,70.04
2018-05-14T12:52:16.497Z,69.89
2018-05-14T12:53:26.593Z,68.91
2018-05-14T12:54:36.720Z,69.24
2018-05-14T12:55:46.554Z,68.36
2018-05-14T12:56:56.399Z,69.14
2018-05-14T12:58:06.785Z,69.14
2018-05-14T12:59:16.641Z,69.04
2018-05-14T13:00:26.933Z,69.04
2018-05-14T13:01:36.757Z,68.95
2018-05-14T13:02:46.859Z,69.14
2018-05-14T13:03:56.691Z,69.53
2018-05-14T13:05:06.780Z,69.3
2018-05-14T13:06:16.662Z,69.59
2018-05-14T13:07:26.502Z,70.18
2018-05-14T13:08:35.796Z,69.56
2018-05-14T13:09:45.386Z,69.56
2018-05-14T13:10:55.523Z,69.65
2018-05-14T13:12:05.615Z,69.1
2018-05-14T13:13:15.529Z,69.2
2018-05-14T13:14:25.670Z,69.2
2018-05-14T13:15:35.770Z,68.65
2018-05-14T13:16:45.868Z,68.07
2018-05-14T13:17:55.949Z,68.78
2018-05-14T13:19:06.086Z,68.59
2018-05-14T13:20:16.402Z,68.49
2018-05-14T13:21:26.479Z,68.82
2018-05-14T13:22:36.577Z,68.29
2018-05-14T13:23:46.729Z,68.82
2018-05-14T13:24:56.880Z,68.82
2018-05-14T13:26:06.972Z,68.82
2018-05-14T13:27:17.272Z,68.32
2018-05-14T13:28:27.369Z,69.01
2018-05-14T13:29:37.241Z,69.27
2018-05-14T13:30:47.375Z,68.98
2018-05-14T13:31:57.477Z,68.98
2018-05-14T13:33:07.901Z,68.75
2018-05-14T13:34:18.006Z,69.63
2018-05-14T13:35:27.822Z,69.53
2018-05-14T13:36:37.793Z,69.24
2018-05-14T13:37:47.797Z,69.63
2018-05-14T13:38:58.503Z,69.43
2018-05-14T13:40:08.642Z,69.53
2018-05-14T13:41:18.476Z,69.4
2018-05-14T13:42:28.054Z,69.59
2018-05-14T13:43:38.147Z,69.2
2018-05-14T13:44:48.247Z,68.65
2018-05-14T13:45:58.351Z,68.55
2018-05-14T13:47:08.213Z,68.59
2018-05-14T13:48:18.036Z,68.59
2018-05-14T13:49:28.117Z,68.95
2018-05-14T13:50:38.214Z,68.95
2018-05-14T13:51:48.059Z,69.69
2018-05-14T13:52:58.188Z,69.95
2018-05-14T13:54:08.336Z,69.92
2018-05-14T13:55:18.476Z,69.72
2018-05-14T13:56:28.642Z,69.49
2018-05-14T13:57:38.508Z,69.68
2018-05-14T13:58:48.620Z,69.53
2018-05-14T13:59:58.830Z,70.07
2018-05-14T14:01:08.927Z,69.78
2018-05-14T14:02:19.033Z,69.68
2018-05-14T14:03:28.883Z,69.94
2018-05-14T14:04:38.749Z,70.62
2018-05-14T14:05:48.861Z,70.68
2018-05-14T14:06:59.082Z,70.4
2018-05-14T14:08:09.205Z,70.4
2018-05-14T14:09:19.204Z,70.59
2018-05-14T14:10:29.383Z,69.71
2018-05-14T14:11:39.230Z,69.52
2018-05-14T14:12:49.331Z,69.75
2018-05-14T14:13:59.442Z,69.91
2018-05-14T14:15:09.540Z,69.71
2018-05-14T14:16:19.115Z,69.42
2018-05-14T14:17:28.939Z,69.91
2018-05-14T14:18:39.037Z,70.1
2018-05-14T14:19:49.143Z,70.65
2018-05-14T14:20:59.229Z,70.26
2018-05-14T14:22:09.337Z,70.36
2018-05-14T14:23:19.604Z,70.36
2018-05-14T14:24:33.265Z,70.07
2018-05-14T14:25:49.189Z,69.94
2018-05-14T14:27:00.867Z,70.42
2018-05-14T14:28:10.568Z,70.91
2018-05-14T14:29:20.864Z,70.68
2018-05-14T14:30:31.021Z,70.49
2018-05-14T14:31:41.196Z,70.78
2018-05-14T14:32:51.300Z,70.49
2018-05-14T14:34:01.449Z,69.71
2018-05-14T14:35:11.551Z,69.81
2018-05-14T14:36:21.916Z,69.65
2018-05-14T14:37:32.853Z,69.35
2018-05-14T14:38:43.039Z,69
2018-05-14T14:39:52.927Z,68.61
2018-05-14T14:41:03.020Z,68.74
2018-05-14T14:42:13.051Z,69.32
2018-05-14T14:43:23.167Z,69.42
2018-05-14T14:44:33.278Z,69.48
2018-05-14T14:45:43.156Z,70.72
2018-05-14T14:46:53.268Z,70.62
2018-05-14T14:48:03.401Z,70.04
2018-05-14T14:49:13.911Z,69.35
2018-05-14T14:50:23.757Z,69.48
2018-05-14T14:51:33.923Z,69.87
2018-05-14T14:52:44.026Z,69.48
2018-05-14T14:53:54.561Z,70.04
2018-05-14T14:55:04.657Z,69.55
2018-05-14T14:56:14.800Z,69.45
2018-05-14T14:57:24.855Z,69.84
2018-05-14T14:58:34.939Z,69.84
2018-05-14T14:59:45.026Z,70.52
2018-05-14T15:00:55.146Z,70.2
2018-05-14T15:02:05.240Z,70.78
2018-05-14T15:03:15.326Z,70.65
2018-05-14T15:04:25.481Z,70.84
2018-05-14T15:05:35.622Z,71.23
2018-05-14T15:06:45.730Z,70.75
2018-05-14T15:07:55.870Z,71.29
2018-05-14T15:09:05.967Z,71.48
2018-05-14T15:10:16.073Z,71.16
2018-05-14T15:11:26.620Z,71.74
2018-05-14T15:12:36.812Z,71.64
2018-05-14T15:13:46.924Z,71.42
2018-05-14T15:14:57.026Z,71.7
2018-05-14T15:16:06.876Z,71.7
2018-05-14T15:17:16.714Z,71.7
2018-05-14T15:18:26.572Z,71.42
2018-05-14T15:19:36.677Z,71.42
2018-05-14T15:20:46.790Z,71.61
2018-05-14T15:21:56.998Z,70.93
2018-05-14T15:23:07.783Z,70.64
2018-05-14T15:24:17.099Z,70.73
2018-05-14T15:25:27.231Z,70.73
2018-05-14T15:26:37.339Z,70.39
2018-05-14T15:27:47.452Z,70.45
2018-05-14T15:28:57.298Z,70.87
2018-05-14T15:30:07.401Z,70.87
2018-05-14T15:31:17.258Z,69.8
2018-05-14T15:32:27.357Z,70.39
2018-05-14T15:33:37.473Z,70.57
2018-05-14T15:34:47.599Z,70.67
2018-05-14T15:35:57.782Z,70.39